CheckWX is a tool to help pilots better visualize weather data.  It is not intended as a substitute for an official pre-flight weather briefing.

16:06:11 UTC

EFRO TAF
Rovaniemi Airport
Rovaniemi, Finland
TAF EFRO 181435Z 1815/1915 03002KT 5000 FEW001 BKN004 TEMPO 1815/1902 1000 BR BKN001 PROB40 1815/1902 0400 FZFG TEMPO 1902/1904 8000 SCT005 BECMG 1904/1906 9999 SCT004 BKN020

Mar-18@
15:00 UTC

Mar-18 @ 15:00 UTC

Mar-19@
04:00 UTC

Mar-19 @ 04:00 UTC

TAF EFRO 181435Z 1815/1915 03002KT 5000 FEW001 BKN004
Wind
  • 030° at 2 KTS
Cloud Levels
  • Few at 100' AGL
  • Broken at 400' AGL

Mar-18@
15:00 UTC

Mar-18 @ 15:00 UTC

Mar-19@
02:00 UTC

Mar-19 @ 02:00 UTC

TEMPO 1815/1902 1000 BR BKN001

Temporary

Temporary Changes expected for less than half the time period

Conditions
Mist
Cloud Levels
  • Broken at 100' AGL

Mar-18@
15:00 UTC

Mar-18 @ 15:00 UTC

Mar-19@
02:00 UTC

Mar-19 @ 02:00 UTC

PROB40 1815/1902 0400 FZFG

Probable - 40% Likelihood

Probable - 40% Likelihood during this time.

Conditions
Freezing Fog

Mar-19@
02:00 UTC

Mar-19 @ 02:00 UTC

Mar-19@
04:00 UTC

Mar-19 @ 04:00 UTC

TEMPO 1902/1904 8000 SCT005

Temporary

Temporary Changes expected for less than half the time period

Cloud Levels
  • Scattered at 500' AGL

Mar-19@
04:00 UTC

Mar-19 @ 04:00 UTC

Mar-19@
15:00 UTC

Mar-19 @ 15:00 UTC

BECMG 1904/1906 9999 SCT004 BKN020

Becoming

Becoming Conditions expected by Tue, Mar 19, 2019 @ 06:00 UTC

Wind
  • 030° at 2 KTS
Cloud Levels
  • Scattered at 400' AGL
  • Broken at 2,000' AGL